sensor_id;sensor_type;location;lat;lon;timestamp;pressure;altitude;pressure_sealevel;temperature;humidity
63339;BME280;70568;51.378;-1.342;2023-06-26T00:01:04;100263.10;;;10.80;42.57
63339;BME280;70568;51.378;-1.342;2023-06-26T00:03:31;100267.54;;;10.36;44.40
63339;BME280;70568;51.378;-1.342;2023-06-26T00:05:58;100268.38;;;10.25;41.65
63339;BME280;70568;51.378;-1.342;2023-06-26T00:08:25;100278.62;;;9.97;43.04
63339;BME280;70568;51.378;-1.342;2023-06-26T00:10:52;100274.52;;;12.28;41.04
63339;BME280;70568;51.378;-1.342;2023-06-26T00:13:19;100279.73;;;10.50;41.88
63339;BME280;70568;51.378;-1.342;2023-06-26T00:15:46;100277.03;;;11.28;42.30
63339;BME280;70568;51.378;-1.342;2023-06-26T00:18:13;100283.00;;;11.59;43.85
63339;BME280;70568;51.378;-1.342;2023-06-26T00:20:40;100286.32;;;10.46;44.72
63339;BME280;70568;51.378;-1.342;2023-06-26T00:23:07;100289.11;;;10.36;44.26
63339;BME280;70568;51.378;-1.342;2023-06-26T00:25:33;100290.84;;;10.79;45.66
63339;BME280;70568;51.378;-1.342;2023-06-26T00:28:00;100287.98;;;11.81;43.87
63339;BME280;70568;51.378;-1.342;2023-06-26T00:30:26;100286.50;;;10.59;44.08
63339;BME280;70568;51.378;-1.342;2023-06-26T00:32:53;100287.80;;;10.33;45.03
63339;BME280;70568;51.378;-1.342;2023-06-26T00:35:20;100291.74;;;9.03;45.25
63339;BME280;70568;51.378;-1.342;2023-06-26T00:37:46;100295.88;;;10.14;45.35
63339;BME280;70568;51.378;-1.342;2023-06-26T00:40:13;100293.16;;;10.21;44.67
63339;BME280;70568;51.378;-1.342;2023-06-26T00:42:39;100297.07;;;11.50;43.07
63339;BME280;70568;51.378;-1.342;2023-06-26T00:45:06;100298.24;;;11.04;44.94
63339;BME280;70568;51.378;-1.342;2023-06-26T00:47:33;100299.25;;;10.00;44.94
63339;BME280;70568;51.378;-1.342;2023-06-26T00:50:00;100298.12;;;10.07;44.27
63339;BME280;70568;51.378;-1.342;2023-06-26T00:52:28;100297.32;;;10.34;43.35
63339;BME280;70568;51.378;-1.342;2023-06-26T00:54:55;100298.72;;;10.50;45.10
63339;BME280;70568;51.378;-1.342;2023-06-26T00:57:22;100296.55;;;10.99;43.45
63339;BME280;70568;51.378;-1.342;2023-06-26T00:59:49;100294.88;;;10.81;43.53
63339;BME280;70568;51.378;-1.342;2023-06-26T01:02:16;100301.32;;;11.52;43.95
63339;BME280;70568;51.378;-1.342;2023-06-26T01:04:42;100304.60;;;10.53;44.58
63339;BME280;70568;51.378;-1.342;2023-06-26T01:07:10;100307.63;;;10.59;45.38
63339;BME280;70568;51.378;-1.342;2023-06-26T01:09:36;100308.18;;;10.88;43.63
63339;BME280;70568;51.378;-1.342;2023-06-26T01:12:03;100309.53;;;12.20;42.05
63339;BME280;70568;51.378;-1.342;2023-06-26T01:14:30;100308.54;;;11.74;41.91
63339;BME280;70568;51.378;-1.342;2023-06-26T01:16:58;100306.89;;;11.76;40.21
63339;BME280;70568;51.378;-1.342;2023-06-26T01:19:28;100311.29;;;11.99;40.51
63339;BME280;70568;51.378;-1.342;2023-06-26T01:22:00;100307.61;;;11.24;42.42
63339;BME280;70568;51.378;-1.342;2023-06-26T01:24:33;100309.63;;;11.42;43.01
63339;BME280;70568;51.378;-1.342;2023-06-26T01:27:01;100313.00;;;13.28;41.47
63339;BME280;70568;51.378;-1.342;2023-06-26T01:29:30;100316.30;;;11.10;43.37
63339;BME280;70568;51.378;-1.342;2023-06-26T01:31:59;100313.78;;;11.56;42.22
63339;BME280;70568;51.378;-1.342;2023-06-26T01:34:27;100312.90;;;11.66;42.75
63339;BME280;70568;51.378;-1.342;2023-06-26T01:36:54;100318.03;;;11.36;42.50
63339;BME280;70568;51.378;-1.342;2023-06-26T01:39:21;100313.96;;;11.25;42.49
63339;BME280;70568;51.378;-1.342;2023-06-26T01:41:47;100317.31;;;11.03;44.62
63339;BME280;70568;51.378;-1.342;2023-06-26T01:44:21;100316.65;;;9.98;45.28
63339;BME280;70568;51.378;-1.342;2023-06-26T01:46:57;100318.88;;;10.24;46.30
63339;BME280;70568;51.378;-1.342;2023-06-26T01:49:32;100316.49;;;10.41;44.17
63339;BME280;70568;51.378;-1.342;2023-06-26T01:52:06;100319.38;;;10.16;45.73
63339;BME280;70568;51.378;-1.342;2023-06-26T01:54:39;100318.49;;;9.16;45.04
63339;BME280;70568;51.378;-1.342;2023-06-26T01:57:08;100320.34;;;9.96;44.62
63339;BME280;70568;51.378;-1.342;2023-06-26T01:59:37;100327.93;;;11.06;43.89
63339;BME280;70568;51.378;-1.342;2023-06-26T02:02:07;100327.46;;;11.81;43.01
63339;BME280;70568;51.378;-1.342;2023-06-26T02:04:34;100330.58;;;11.14;43.68
63339;BME280;70568;51.378;-1.342;2023-06-26T02:07:01;100341.53;;;9.99;45.09
63339;BME280;70568;51.378;-1.342;2023-06-26T02:09:28;100338.06;;;11.36;44.02
63339;BME280;70568;51.378;-1.342;2023-06-26T02:11:54;100332.44;;;11.37;42.77
63339;BME280;70568;51.378;-1.342;2023-06-26T02:14:21;100326.44;;;11.69;42.31
63339;BME280;70568;51.378;-1.342;2023-06-26T02:16:48;100333.35;;;11.03;42.40
63339;BME280;70568;51.378;-1.342;2023-06-26T02:19:14;100337.52;;;10.84;42.64
63339;BME280;70568;51.378;-1.342;2023-06-26T02:21:41;100340.50;;;11.41;41.84
63339;BME280;70568;51.378;-1.342;2023-06-26T02:24:07;100342.35;;;11.43;41.72
63339;BME280;70568;51.378;-1.342;2023-06-26T02:26:34;100343.82;;;10.70;43.15
63339;BME280;70568;51.378;-1.342;2023-06-26T02:29:00;100343.10;;;10.93;43.64
63339;BME280;70568;51.378;-1.342;2023-06-26T02:31:27;100345.26;;;10.98;43.49
63339;BME280;70568;51.378;-1.342;2023-06-26T02:33:54;100346.84;;;11.55;42.16
63339;BME280;70568;51.378;-1.342;2023-06-26T02:36:20;100344.89;;;11.14;40.85
63339;BME280;70568;51.378;-1.342;2023-06-26T02:38:46;100348.62;;;12.37;41.09
63339;BME280;70568;51.378;-1.342;2023-06-26T02:41:13;100346.06;;;10.95;41.41
63339;BME280;70568;51.378;-1.342;2023-06-26T02:43:41;100345.71;;;10.85;41.00
63339;BME280;70568;51.378;-1.342;2023-06-26T02:46:08;100347.51;;;12.10;40.50
63339;BME280;70568;51.378;-1.342;2023-06-26T02:48:34;100344.27;;;10.79;40.89
63339;BME280;70568;51.378;-1.342;2023-06-26T02:51:00;100342.54;;;10.85;41.14
63339;BME280;70568;51.378;-1.342;2023-06-26T02:53:28;100348.90;;;10.04;43.30
63339;BME280;70568;51.378;-1.342;2023-06-26T02:55:54;100347.28;;;10.64;43.89
63339;BME280;70568;51.378;-1.342;2023-06-26T02:58:21;100350.40;;;10.63;44.41
63339;BME280;70568;51.378;-1.342;2023-06-26T03:00:47;100360.18;;;10.24;45.49
63339;BME280;70568;51.378;-1.342;2023-06-26T03:03:14;100359.22;;;8.86;46.71
63339;BME280;70568;51.378;-1.342;2023-06-26T03:05:40;100358.36;;;8.42;47.17
63339;BME280;70568;51.378;-1.342;2023-06-26T03:08:06;100360.42;;;10.26;45.61
63339;BME280;70568;51.378;-1.342;2023-06-26T03:10:33;100361.86;;;9.98;45.85
63339;BME280;70568;51.378;-1.342;2023-06-26T03:12:59;100362.94;;;10.09;45.58
63339;BME280;70568;51.378;-1.342;2023-06-26T03:15:26;100362.43;;;9.07;44.94
63339;BME280;70568;51.378;-1.342;2023-06-26T03:17:53;100361.48;;;9.48;42.49
63339;BME280;70568;51.378;-1.342;2023-06-26T03:20:19;100362.87;;;9.69;42.60
63339;BME280;70568;51.378;-1.342;2023-06-26T03:22:46;100363.72;;;10.64;42.10
63339;BME280;70568;51.378;-1.342;2023-06-26T03:25:13;100363.17;;;9.84;43.55
63339;BME280;70568;51.378;-1.342;2023-06-26T03:27:39;100364.67;;;9.49;43.39
63339;BME280;70568;51.378;-1.342;2023-06-26T03:30:06;100364.14;;;11.63;43.28
63339;BME280;70568;51.378;-1.342;2023-06-26T03:32:33;100366.22;;;10.14;43.63
63339;BME280;70568;51.378;-1.342;2023-06-26T03:34:59;100365.14;;;10.28;43.43
63339;BME280;70568;51.378;-1.342;2023-06-26T03:37:26;100362.39;;;9.91;42.71
63339;BME280;70568;51.378;-1.342;2023-06-26T03:39:52;100366.09;;;11.77;41.55
63339;BME280;70568;51.378;-1.342;2023-06-26T03:42:19;100365.60;;;11.09;41.02
63339;BME280;70568;51.378;-1.342;2023-06-26T03:44:45;100371.78;;;11.51;41.53
63339;BME280;70568;51.378;-1.342;2023-06-26T03:47:12;100376.82;;;10.66;42.00
63339;BME280;70568;51.378;-1.342;2023-06-26T03:49:38;100379.84;;;9.99;43.99
63339;BME280;70568;51.378;-1.342;2023-06-26T03:52:06;100381.90;;;10.54;42.16
63339;BME280;70568;51.378;-1.342;2023-06-26T03:54:33;100383.45;;;9.72;43.49
63339;BME280;70568;51.378;-1.342;2023-06-26T03:56:59;100387.35;;;9.70;42.41
63339;BME280;70568;51.378;-1.342;2023-06-26T03:59:26;100387.97;;;10.74;42.93
63339;BME280;70568;51.378;-1.342;2023-06-26T04:01:53;100389.91;;;10.13;42.42
63339;BME280;70568;51.378;-1.342;2023-06-26T04:04:20;100389.13;;;10.81;41.06
63339;BME280;70568;51.378;-1.342;2023-06-26T04:06:46;100398.77;;;10.36;40.89
63339;BME280;70568;51.378;-1.342;2023-06-26T04:09:13;100396.76;;;10.87;41.46
63339;BME280;70568;51.378;-1.342;2023-06-26T04:11:39;100402.54;;;9.83;42.56
63339;BME280;70568;51.378;-1.342;2023-06-26T04:14:06;100397.25;;;10.14;42.27
63339;BME280;70568;51.378;-1.342;2023-06-26T04:16:33;100393.83;;;9.24;42.69
63339;BME280;70568;51.378;-1.342;2023-06-26T04:18:59;100397.52;;;10.45;41.97
63339;BME280;70568;51.378;-1.342;2023-06-26T04:21:26;100401.14;;;10.02;41.09
63339;BME280;70568;51.378;-1.342;2023-06-26T04:23:52;100406.34;;;11.42;41.30
63339;BME280;70568;51.378;-1.342;2023-06-26T04:26:19;100409.06;;;9.31;43.08
63339;BME280;70568;51.378;-1.342;2023-06-26T04:28:46;100418.19;;;10.36;43.84
63339;BME280;70568;51.378;-1.342;2023-06-26T04:31:12;100422.45;;;10.00;43.58
63339;BME280;70568;51.378;-1.342;2023-06-26T04:33:39;100431.79;;;9.62;43.50
63339;BME280;70568;51.378;-1.342;2023-06-26T04:36:06;100437.01;;;10.59;43.10
63339;BME280;70568;51.378;-1.342;2023-06-26T04:38:33;100440.73;;;11.67;42.93
63339;BME280;70568;51.378;-1.342;2023-06-26T04:41:00;100437.47;;;9.41;42.64
63339;BME280;70568;51.378;-1.342;2023-06-26T04:43:28;100436.80;;;9.44;42.58
63339;BME280;70568;51.378;-1.342;2023-06-26T04:45:55;100435.02;;;10.46;42.63
63339;BME280;70568;51.378;-1.342;2023-06-26T04:48:22;100433.93;;;10.44;42.74
63339;BME280;70568;51.378;-1.342;2023-06-26T04:50:49;100432.81;;;9.77;41.75
63339;BME280;70568;51.378;-1.342;2023-06-26T04:53:16;100433.40;;;10.40;42.78
63339;BME280;70568;51.378;-1.342;2023-06-26T04:55:42;100435.05;;;10.03;44.67
63339;BME280;70568;51.378;-1.342;2023-06-26T04:58:09;100442.37;;;9.56;45.40
63339;BME280;70568;51.378;-1.342;2023-06-26T05:00:36;100439.99;;;9.61;45.45
63339;BME280;70568;51.378;-1.342;2023-06-26T05:03:02;100449.41;;;8.96;44.43
63339;BME280;70568;51.378;-1.342;2023-06-26T05:05:30;100455.63;;;10.61;43.71
63339;BME280;70568;51.378;-1.342;2023-06-26T05:07:56;100461.67;;;9.20;45.47
63339;BME280;70568;51.378;-1.342;2023-06-26T05:10:23;100459.79;;;9.52;44.17
63339;BME280;70568;51.378;-1.342;2023-06-26T05:12:49;100470.72;;;9.35;45.58
63339;BME280;70568;51.378;-1.342;2023-06-26T05:15:15;100466.24;;;9.82;45.73
63339;BME280;70568;51.378;-1.342;2023-06-26T05:17:42;100470.47;;;10.77;46.46
63339;BME280;70568;51.378;-1.342;2023-06-26T05:20:10;100466.71;;;9.78;45.23
63339;BME280;70568;51.378;-1.342;2023-06-26T05:22:37;100466.71;;;8.88;47.03
63339;BME280;70568;51.378;-1.342;2023-06-26T05:25:06;100469.97;;;9.32;47.19
63339;BME280;70568;51.378;-1.342;2023-06-26T05:27:35;100473.59;;;9.17;46.18
63339;BME280;70568;51.378;-1.342;2023-06-26T05:30:03;100472.69;;;9.38;45.37
63339;BME280;70568;51.378;-1.342;2023-06-26T05:32:34;100477.99;;;9.30;46.86
63339;BME280;70568;51.378;-1.342;2023-06-26T05:35:01;100473.59;;;8.66;47.68
63339;BME280;70568;51.378;-1.342;2023-06-26T05:37:31;100481.81;;;9.23;46.88
63339;BME280;70568;51.378;-1.342;2023-06-26T05:39:58;100487.29;;;8.97;47.22
63339;BME280;70568;51.378;-1.342;2023-06-26T05:42:26;100487.24;;;9.54;46.36
63339;BME280;70568;51.378;-1.342;2023-06-26T05:44:53;100475.03;;;9.69;46.86
63339;BME280;70568;51.378;-1.342;2023-06-26T05:47:20;100467.74;;;9.11;46.76
63339;BME280;70568;51.378;-1.342;2023-06-26T05:49:47;100471.69;;;9.55;45.68
63339;BME280;70568;51.378;-1.342;2023-06-26T05:52:15;100475.50;;;9.99;45.62
63339;BME280;70568;51.378;-1.342;2023-06-26T05:54:42;100474.44;;;9.64;46.31
63339;BME280;70568;51.378;-1.342;2023-06-26T05:57:09;100477.53;;;9.65;47.12
63339;BME280;70568;51.378;-1.342;2023-06-26T05:59:36;100473.79;;;10.00;46.20
63339;BME280;70568;51.378;-1.342;2023-06-26T06:02:06;100476.17;;;9.75;43.51
63339;BME280;70568;51.378;-1.342;2023-06-26T06:04:33;100478.17;;;9.75;44.45
63339;BME280;70568;51.378;-1.342;2023-06-26T06:06:59;100488.73;;;10.33;44.05
63339;BME280;70568;51.378;-1.342;2023-06-26T06:09:26;100492.81;;;10.48;43.55
63339;BME280;70568;51.378;-1.342;2023-06-26T06:11:52;100493.65;;;10.55;43.12
63339;BME280;70568;51.378;-1.342;2023-06-26T06:14:19;100494.60;;;10.51;43.56
63339;BME280;70568;51.378;-1.342;2023-06-26T06:16:45;100502.20;;;9.99;42.65
63339;BME280;70568;51.378;-1.342;2023-06-26T06:19:12;100508.32;;;10.36;43.48
63339;BME280;70568;51.378;-1.342;2023-06-26T06:21:39;100513.07;;;9.63;43.30
63339;BME280;70568;51.378;-1.342;2023-06-26T06:24:06;100508.76;;;11.64;42.45
63339;BME280;70568;51.378;-1.342;2023-06-26T06:26:33;100505.15;;;9.67;44.24
63339;BME280;70568;51.378;-1.342;2023-06-26T06:28:59;100505.59;;;10.11;43.96
63339;BME280;70568;51.378;-1.342;2023-06-26T06:31:26;100511.16;;;11.41;42.73
63339;BME280;70568;51.378;-1.342;2023-06-26T06:33:53;100515.17;;;10.94;42.15
63339;BME280;70568;51.378;-1.342;2023-06-26T06:36:20;100521.27;;;11.11;43.00
63339;BME280;70568;51.378;-1.342;2023-06-26T06:38:46;100520.16;;;10.17;43.24
63339;BME280;70568;51.378;-1.342;2023-06-26T06:41:13;100524.89;;;12.41;41.02
63339;BME280;70568;51.378;-1.342;2023-06-26T06:43:39;100537.72;;;10.97;41.23
63339;BME280;70568;51.378;-1.342;2023-06-26T06:46:05;100542.66;;;11.50;41.04
63339;BME280;70568;51.378;-1.342;2023-06-26T06:48:32;100541.76;;;12.24;40.49
63339;BME280;70568;51.378;-1.342;2023-06-26T06:50:58;100540.79;;;11.30;42.26
63339;BME280;70568;51.378;-1.342;2023-06-26T06:53:25;100532.80;;;12.55;40.38
63339;BME280;70568;51.378;-1.342;2023-06-26T06:55:51;100545.44;;;10.75;41.31
63339;BME280;70568;51.378;-1.342;2023-06-26T06:58:18;100551.45;;;12.15;42.49
63339;BME280;70568;51.378;-1.342;2023-06-26T07:00:45;100564.33;;;10.64;43.57
63339;BME280;70568;51.378;-1.342;2023-06-26T07:03:11;100565.91;;;10.33;43.73
63339;BME280;70568;51.378;-1.342;2023-06-26T07:05:38;100562.09;;;9.72;43.84
63339;BME280;70568;51.378;-1.342;2023-06-26T07:08:05;100562.09;;;10.20;44.10
63339;BME280;70568;51.378;-1.342;2023-06-26T07:10:31;100568.86;;;11.06;42.56
63339;BME280;70568;51.378;-1.342;2023-06-26T07:12:58;100565.74;;;10.39;42.17
63339;BME280;70568;51.378;-1.342;2023-06-26T07:15:25;100569.45;;;10.96;41.89
63339;BME280;70568;51.378;-1.342;2023-06-26T07:17:51;100574.98;;;8.82;43.90
63339;BME280;70568;51.378;-1.342;2023-06-26T07:20:18;100571.98;;;11.16;42.55
63339;BME280;70568;51.378;-1.342;2023-06-26T07:22:45;100570.67;;;9.21;44.67
63339;BME280;70568;51.378;-1.342;2023-06-26T07:25:11;100565.94;;;11.07;42.71
63339;BME280;70568;51.378;-1.342;2023-06-26T07:27:38;100580.57;;;10.01;44.11
63339;BME280;70568;51.378;-1.342;2023-06-26T07:30:06;100582.46;;;10.85;43.56
63339;BME280;70568;51.378;-1.342;2023-06-26T07:32:33;100589.39;;;10.30;41.91
63339;BME280;70568;51.378;-1.342;2023-06-26T07:35:00;100591.67;;;10.26;41.13
63339;BME280;70568;51.378;-1.342;2023-06-26T07:37:26;100585.20;;;10.64;40.51
63339;BME280;70568;51.378;-1.342;2023-06-26T07:39:53;100597.90;;;10.80;41.35
63339;BME280;70568;51.378;-1.342;2023-06-26T07:42:19;100594.46;;;11.81;40.54
63339;BME280;70568;51.378;-1.342;2023-06-26T07:44:46;100592.67;;;11.92;40.47
63339;BME280;70568;51.378;-1.342;2023-06-26T07:47:13;100583.49;;;11.67;37.88
63339;BME280;70568;51.378;-1.342;2023-06-26T07:49:39;100580.64;;;11.51;36.65
63339;BME280;70568;51.378;-1.342;2023-06-26T07:52:07;100583.67;;;13.30;38.10
63339;BME280;70568;51.378;-1.342;2023-06-26T07:54:34;100586.66;;;12.55;38.06
63339;BME280;70568;51.378;-1.342;2023-06-26T07:57:02;100607.12;;;11.97;38.93
63339;BME280;70568;51.378;-1.342;2023-06-26T07:59:30;100622.71;;;12.82;38.04
63339;BME280;70568;51.378;-1.342;2023-06-26T08:01:58;100617.93;;;12.18;38.49
63339;BME280;70568;51.378;-1.342;2023-06-26T08:04:27;100613.89;;;11.87;37.60
63339;BME280;70568;51.378;-1.342;2023-06-26T08:06:57;100613.72;;;12.65;37.87
63339;BME280;70568;51.378;-1.342;2023-06-26T08:09:26;100601.58;;;13.22;36.56
63339;BME280;70568;51.378;-1.342;2023-06-26T08:11:54;100597.90;;;12.27;36.40
63339;BME280;70568;51.378;-1.342;2023-06-26T08:14:21;100614.27;;;10.99;38.92
63339;BME280;70568;51.378;-1.342;2023-06-26T08:16:48;100609.23;;;10.36;38.68
63339;BME280;70568;51.378;-1.342;2023-06-26T08:19:16;100614.32;;;10.08;38.16
63339;BME280;70568;51.378;-1.342;2023-06-26T08:21:44;100619.84;;;12.37;37.09
63339;BME280;70568;51.378;-1.342;2023-06-26T08:24:12;100619.56;;;13.04;36.56
63339;BME280;70568;51.378;-1.342;2023-06-26T08:26:39;100614.30;;;11.93;36.97
63339;BME280;70568;51.378;-1.342;2023-06-26T08:29:06;100612.03;;;11.60;36.84
63339;BME280;70568;51.378;-1.342;2023-06-26T08:31:32;100608.78;;;11.13;36.86
63339;BME280;70568;51.378;-1.342;2023-06-26T08:33:58;100606.46;;;11.83;36.96
63339;BME280;70568;51.378;-1.342;2023-06-26T08:36:25;100603.47;;;11.79;36.49
63339;BME280;70568;51.378;-1.342;2023-06-26T08:38:51;100604.20;;;13.13;34.48
63339;BME280;70568;51.378;-1.342;2023-06-26T08:41:18;100608.17;;;12.05;35.08
63339;BME280;70568;51.378;-1.342;2023-06-26T08:43:46;100610.41;;;12.69;34.23
63339;BME280;70568;51.378;-1.342;2023-06-26T08:46:14;100613.30;;;12.70;32.53
63339;BME280;70568;51.378;-1.342;2023-06-26T08:48:44;100614.64;;;14.02;31.74
63339;BME280;70568;51.378;-1.342;2023-06-26T08:51:13;100616.59;;;13.34;32.46
63339;BME280;70568;51.378;-1.342;2023-06-26T08:53:49;100621.73;;;14.14;33.04
63339;BME280;70568;51.378;-1.342;2023-06-26T08:56:18;100624.42;;;13.75;33.46
63339;BME280;70568;51.378;-1.342;2023-06-26T08:58:46;100621.11;;;12.96;34.40
63339;BME280;70568;51.378;-1.342;2023-06-26T09:01:13;100626.95;;;11.88;35.68
63339;BME280;70568;51.378;-1.342;2023-06-26T09:03:40;100624.86;;;13.88;32.70
63339;BME280;70568;51.378;-1.342;2023-06-26T09:06:06;100625.07;;;14.10;31.61
63339;BME280;70568;51.378;-1.342;2023-06-26T09:08:34;100622.91;;;13.42;34.39
63339;BME280;70568;51.378;-1.342;2023-06-26T09:11:01;100622.84;;;13.01;33.57
63339;BME280;70568;51.378;-1.342;2023-06-26T09:13:30;100620.09;;;12.58;31.49
63339;BME280;70568;51.378;-1.342;2023-06-26T09:15:57;100616.57;;;14.89;30.44
63339;BME280;70568;51.378;-1.342;2023-06-26T09:18:24;100618.53;;;14.47;29.63
63339;BME280;70568;51.378;-1.342;2023-06-26T09:20:50;100625.11;;;12.20;31.04
63339;BME280;70568;51.378;-1.342;2023-06-26T09:23:17;100627.53;;;14.37;30.95
63339;BME280;70568;51.378;-1.342;2023-06-26T09:25:47;100626.27;;;13.59;30.33
63339;BME280;70568;51.378;-1.342;2023-06-26T09:28:13;100625.01;;;14.54;29.34
63339;BME280;70568;51.378;-1.342;2023-06-26T09:30:40;100620.15;;;13.76;31.91
63339;BME280;70568;51.378;-1.342;2023-06-26T09:33:16;100620.67;;;12.51;31.96
63339;BME280;70568;51.378;-1.342;2023-06-26T09:35:43;100636.09;;;12.47;32.94
63339;BME280;70568;51.378;-1.342;2023-06-26T09:38:11;100638.13;;;13.44;34.24
63339;BME280;70568;51.378;-1.342;2023-06-26T09:40:39;100635.69;;;11.50;33.94
63339;BME280;70568;51.378;-1.342;2023-06-26T09:43:07;100643.54;;;12.38;33.73
63339;BME280;70568;51.378;-1.342;2023-06-26T09:45:35;100647.35;;;11.80;33.56
63339;BME280;70568;51.378;-1.342;2023-06-26T09:48:03;100649.69;;;12.30;32.95
63339;BME280;70568;51.378;-1.342;2023-06-26T09:50:32;100647.21;;;10.70;32.56
63339;BME280;70568;51.378;-1.342;2023-06-26T09:53:07;100652.13;;;12.85;31.36
63339;BME280;70568;51.378;-1.342;2023-06-26T09:55:34;100649.40;;;12.44;30.67
63339;BME280;70568;51.378;-1.342;2023-06-26T09:58:02;100646.18;;;12.49;30.56
63339;BME280;70568;51.378;-1.342;2023-06-26T10:00:31;100648.80;;;12.53;30.27
63339;BME280;70568;51.378;-1.342;2023-06-26T10:02:57;100660.96;;;11.87;32.26
63339;BME280;70568;51.378;-1.342;2023-06-26T10:05:24;100669.41;;;12.28;31.09
63339;BME280;70568;51.378;-1.342;2023-06-26T10:07:52;100656.81;;;12.24;30.34
63339;BME280;70568;51.378;-1.342;2023-06-26T10:10:19;100652.39;;;11.77;32.11
63339;BME280;70568;51.378;-1.342;2023-06-26T10:12:48;100663.10;;;11.75;32.66
63339;BME280;70568;51.378;-1.342;2023-06-26T10:15:19;100672.16;;;12.03;32.75
63339;BME280;70568;51.378;-1.342;2023-06-26T10:17:48;100671.77;;;11.20;32.56
63339;BME280;70568;51.378;-1.342;2023-06-26T10:20:16;100671.12;;;12.54;33.31
63339;BME280;70568;51.378;-1.342;2023-06-26T10:22:45;100666.98;;;12.91;32.35
63339;BME280;70568;51.378;-1.342;2023-06-26T10:25:16;100669.53;;;13.44;31.92
63339;BME280;70568;51.378;-1.342;2023-06-26T10:27:45;100670.04;;;14.16;31.13
63339;BME280;70568;51.378;-1.342;2023-06-26T10:30:22;100676.68;;;13.45;30.64
63339;BME280;70568;51.378;-1.342;2023-06-26T10:32:50;100678.66;;;12.72;31.62
63339;BME280;70568;51.378;-1.342;2023-06-26T10:35:18;100686.92;;;13.07;32.10
63339;BME280;70568;51.378;-1.342;2023-06-26T10:37:46;100690.00;;;13.35;33.30
63339;BME280;70568;51.378;-1.342;2023-06-26T10:40:17;100689.54;;;13.08;32.52
63339;BME280;70568;51.378;-1.342;2023-06-26T10:42:47;100695.68;;;13.13;32.27
63339;BME280;70568;51.378;-1.342;2023-06-26T10:45:15;100696.81;;;12.22;34.05
63339;BME280;70568;51.378;-1.342;2023-06-26T10:47:46;100692.92;;;11.78;33.83
63339;BME280;70568;51.378;-1.342;2023-06-26T10:50:17;100692.28;;;11.60;33.43
63339;BME280;70568;51.378;-1.342;2023-06-26T10:52:44;100681.30;;;12.75;30.94
63339;BME280;70568;51.378;-1.342;2023-06-26T10:55:11;100679.50;;;12.75;30.28
63339;BME280;70568;51.378;-1.342;2023-06-26T10:57:44;100686.39;;;12.45;31.63
63339;BME280;70568;51.378;-1.342;2023-06-26T11:00:15;100686.87;;;11.79;32.02
63339;BME280;70568;51.378;-1.342;2023-06-26T11:02:49;100693.95;;;12.97;32.11
63339;BME280;70568;51.378;-1.342;2023-06-26T11:05:24;100682.74;;;14.83;31.35
63339;BME280;70568;51.378;-1.342;2023-06-26T11:08:07;100680.94;;;15.96;30.36
63339;BME280;70568;51.378;-1.342;2023-06-26T11:10:51;100679.44;;;15.10;29.40
63339;BME280;70568;51.378;-1.342;2023-06-26T11:13:19;100680.60;;;14.21;28.96
63339;BME280;70568;51.378;-1.342;2023-06-26T11:15:47;100685.82;;;14.04;28.23
63339;BME280;70568;51.378;-1.342;2023-06-26T11:18:16;100689.38;;;13.50;29.28
63339;BME280;70568;51.378;-1.342;2023-06-26T11:20:42;100692.63;;;13.52;30.06
63339;BME280;70568;51.378;-1.342;2023-06-26T11:23:09;100692.89;;;13.82;29.71
63339;BME280;70568;51.378;-1.342;2023-06-26T11:25:36;100694.40;;;14.48;27.40
63339;BME280;70568;51.378;-1.342;2023-06-26T11:28:04;100701.98;;;13.11;29.03
63339;BME280;70568;51.378;-1.342;2023-06-26T11:30:32;100698.51;;;14.13;27.56
63339;BME280;70568;51.378;-1.342;2023-06-26T11:33:03;100705.37;;;14.00;29.57
63339;BME280;70568;51.378;-1.342;2023-06-26T11:35:31;100703.57;;;14.41;29.81
63339;BME280;70568;51.378;-1.342;2023-06-26T11:37:58;100706.68;;;14.73;29.58
63339;BME280;70568;51.378;-1.342;2023-06-26T11:40:26;100705.19;;;15.19;29.13
63339;BME280;70568;51.378;-1.342;2023-06-26T11:42:53;100707.14;;;13.86;29.42
63339;BME280;70568;51.378;-1.342;2023-06-26T11:45:20;100700.73;;;14.91;29.09
63339;BME280;70568;51.378;-1.342;2023-06-26T11:47:47;100708.29;;;14.51;28.88
63339;BME280;70568;51.378;-1.342;2023-06-26T11:50:15;100703.56;;;15.36;28.89
63339;BME280;70568;51.378;-1.342;2023-06-26T11:52:42;100698.41;;;14.94;27.06
63339;BME280;70568;51.378;-1.342;2023-06-26T11:55:09;100699.65;;;14.82;27.14
63339;BME280;70568;51.378;-1.342;2023-06-26T11:57:36;100712.02;;;14.92;27.41
63339;BME280;70568;51.378;-1.342;2023-06-26T12:00:11;100703.12;;;14.00;28.29
63339;BME280;70568;51.378;-1.342;2023-06-26T12:02:38;100714.48;;;13.78;27.58
63339;BME280;70568;51.378;-1.342;2023-06-26T12:05:06;100713.55;;;13.73;28.26
63339;BME280;70568;51.378;-1.342;2023-06-26T12:07:34;100716.04;;;14.33;27.84
63339;BME280;70568;51.378;-1.342;2023-06-26T12:10:01;100713.36;;;14.40;28.14
63339;BME280;70568;51.378;-1.342;2023-06-26T12:12:30;100713.21;;;14.54;28.10
63339;BME280;70568;51.378;-1.342;2023-06-26T12:14:57;100706.61;;;14.35;29.53
63339;BME280;70568;51.378;-1.342;2023-06-26T12:17:25;100715.07;;;14.23;29.61
63339;BME280;70568;51.378;-1.342;2023-06-26T12:19:52;100717.99;;;14.37;29.10
63339;BME280;70568;51.378;-1.342;2023-06-26T12:22:19;100721.23;;;13.24;29.19
63339;BME280;70568;51.378;-1.342;2023-06-26T12:24:47;100711.62;;;13.26;29.57
63339;BME280;70568;51.378;-1.342;2023-06-26T12:27:17;100705.81;;;14.05;29.77
63339;BME280;70568;51.378;-1.342;2023-06-26T12:29:50;100704.28;;;13.83;28.11
63339;BME280;70568;51.378;-1.342;2023-06-26T12:32:17;100707.13;;;14.23;27.99
63339;BME280;70568;51.378;-1.342;2023-06-26T12:34:48;100698.59;;;14.41;28.09
63339;BME280;70568;51.378;-1.342;2023-06-26T12:37:16;100704.09;;;14.32;26.99
63339;BME280;70568;51.378;-1.342;2023-06-26T12:39:47;100696.62;;;15.01;25.47
63339;BME280;70568;51.378;-1.342;2023-06-26T12:42:15;100695.87;;;13.86;27.46
63339;BME280;70568;51.378;-1.342;2023-06-26T12:44:42;100690.16;;;12.57;26.97